Williams Acres, New Mexico
Current Conditions -  °F | °C
As of 2:53 AM on Saturday 25 Oct 2014 (Local Time) from KGUP Reporting Station
Clear Clear  
Wind Chill: 37°   Ceiling: Unl
Heat Index: 37°   Visibility: 10mi
Dew Point: 30°   Wind: 3mph
Humidity: 76%   Direction: 80°E
Pressure: 30.36"   Gusts: NA
Location:  35.4315°N, 108.724°W
Report Text: KGUP 250853Z AUTO 08003KT 10SM CLR 03/M01 A3036 RMK AO2 SLP184 T00281011 52000
Loading
Personal Weather Stations






























Interactive Weather Map
Tropical Storm Tracking
New forecast layout! Learn more

10-Day Weather Forecast

Advertisements
Track Severe Weather on mobile